sensor_id;sensor_type;location;lat;lon;timestamp;temperature;humidity
20759;DHT22;10539;53.686;9.158;2023-04-01T00:02:08;12.00;99.90
20759;DHT22;10539;53.686;9.158;2023-04-01T00:04:33;12.00;99.90
20759;DHT22;10539;53.686;9.158;2023-04-01T00:06:59;12.00;99.90
20759;DHT22;10539;53.686;9.158;2023-04-01T00:09:25;12.00;99.90
20759;DHT22;10539;53.686;9.158;2023-04-01T00:11:51;11.90;99.90
20759;DHT22;10539;53.686;9.158;2023-04-01T00:14:17;11.80;99.90
20759;DHT22;10539;53.686;9.158;2023-04-01T00:16:43;11.80;99.90
20759;DHT22;10539;53.686;9.158;2023-04-01T00:19:09;11.80;99.90
20759;DHT22;10539;53.686;9.158;2023-04-01T00:21:35;11.80;99.90
20759;DHT22;10539;53.686;9.158;2023-04-01T00:24:02;11.80;99.90
20759;DHT22;10539;53.686;9.158;2023-04-01T00:26:28;11.70;99.90
20759;DHT22;10539;53.686;9.158;2023-04-01T00:28:54;11.80;99.90
20759;DHT22;10539;53.686;9.158;2023-04-01T00:31:20;11.80;99.90
20759;DHT22;10539;53.686;9.158;2023-04-01T00:33:46;11.70;99.90
20759;DHT22;10539;53.686;9.158;2023-04-01T00:36:14;11.70;99.90
20759;DHT22;10539;53.686;9.158;2023-04-01T00:38:40;11.70;99.90
20759;DHT22;10539;53.686;9.158;2023-04-01T00:41:09;11.60;99.90
20759;DHT22;10539;53.686;9.158;2023-04-01T00:43:39;11.60;99.90
20759;DHT22;10539;53.686;9.158;2023-04-01T00:46:06;11.60;99.90
20759;DHT22;10539;53.686;9.158;2023-04-01T00:48:34;11.60;99.90
20759;DHT22;10539;53.686;9.158;2023-04-01T00:51:05;11.60;99.90
20759;DHT22;10539;53.686;9.158;2023-04-01T00:53:34;11.60;99.90
20759;DHT22;10539;53.686;9.158;2023-04-01T00:56:11;11.60;99.90
20759;DHT22;10539;53.686;9.158;2023-04-01T00:58:44;11.60;99.90
20759;DHT22;10539;53.686;9.158;2023-04-01T01:01:12;11.60;99.90
20759;DHT22;10539;53.686;9.158;2023-04-01T01:03:38;11.50;99.90
20759;DHT22;10539;53.686;9.158;2023-04-01T01:11:52;11.40;99.90
20759;DHT22;10539;53.686;9.158;2023-04-01T01:14:41;11.30;99.90
20759;DHT22;10539;53.686;9.158;2023-04-01T01:31:43;11.10;99.90
20759;DHT22;10539;53.686;9.158;2023-04-01T01:34:24;11.10;99.90
20759;DHT22;10539;53.686;9.158;2023-04-01T01:36:58;11.10;99.90
20759;DHT22;10539;53.686;9.158;2023-04-01T01:39:27;11.10;99.90
20759;DHT22;10539;53.686;9.158;2023-04-01T01:41:57;11.10;99.90
20759;DHT22;10539;53.686;9.158;2023-04-01T01:44:26;11.10;99.90
20759;DHT22;10539;53.686;9.158;2023-04-01T01:46:55;11.20;99.90
20759;DHT22;10539;53.686;9.158;2023-04-01T01:49:22;11.20;99.90
20759;DHT22;10539;53.686;9.158;2023-04-01T01:51:49;11.20;99.90
20759;DHT22;10539;53.686;9.158;2023-04-01T01:54:17;11.20;99.90
20759;DHT22;10539;53.686;9.158;2023-04-01T01:56:46;11.10;99.90
20759;DHT22;10539;53.686;9.158;2023-04-01T01:59:14;11.10;99.90
20759;DHT22;10539;53.686;9.158;2023-04-01T02:01:43;11.10;99.90
20759;DHT22;10539;53.686;9.158;2023-04-01T02:04:11;11.10;99.90
20759;DHT22;10539;53.686;9.158;2023-04-01T02:06:42;11.10;99.90
20759;DHT22;10539;53.686;9.158;2023-04-01T02:09:11;11.10;99.90
20759;DHT22;10539;53.686;9.158;2023-04-01T02:11:47;11.10;99.90
20759;DHT22;10539;53.686;9.158;2023-04-01T02:14:17;11.10;99.90
20759;DHT22;10539;53.686;9.158;2023-04-01T02:16:58;11.00;99.90
20759;DHT22;10539;53.686;9.158;2023-04-01T02:19:38;11.00;99.90
20759;DHT22;10539;53.686;9.158;2023-04-01T02:22:06;11.10;99.90
20759;DHT22;10539;53.686;9.158;2023-04-01T02:24:35;11.00;99.90
20759;DHT22;10539;53.686;9.158;2023-04-01T02:27:04;11.00;99.90
20759;DHT22;10539;53.686;9.158;2023-04-01T02:29:30;11.10;99.90
20759;DHT22;10539;53.686;9.158;2023-04-01T02:31:55;11.10;99.90
20759;DHT22;10539;53.686;9.158;2023-04-01T02:34:23;11.00;99.90
20759;DHT22;10539;53.686;9.158;2023-04-01T02:36:50;11.00;99.90
20759;DHT22;10539;53.686;9.158;2023-04-01T02:39:16;11.00;99.90
20759;DHT22;10539;53.686;9.158;2023-04-01T02:41:44;11.00;99.90
20759;DHT22;10539;53.686;9.158;2023-04-01T02:44:13;11.00;99.90
20759;DHT22;10539;53.686;9.158;2023-04-01T02:46:39;11.00;99.90
20759;DHT22;10539;53.686;9.158;2023-04-01T02:49:05;11.00;99.90
20759;DHT22;10539;53.686;9.158;2023-04-01T02:51:31;11.00;99.90
20759;DHT22;10539;53.686;9.158;2023-04-01T02:53:57;11.00;99.90
20759;DHT22;10539;53.686;9.158;2023-04-01T02:56:23;11.00;99.90
20759;DHT22;10539;53.686;9.158;2023-04-01T02:58:48;11.00;99.90
20759;DHT22;10539;53.686;9.158;2023-04-01T03:01:14;10.90;99.90
20759;DHT22;10539;53.686;9.158;2023-04-01T03:03:41;10.90;99.90
20759;DHT22;10539;53.686;9.158;2023-04-01T03:06:12;11.00;99.90
20759;DHT22;10539;53.686;9.158;2023-04-01T03:08:38;11.00;99.90
20759;DHT22;10539;53.686;9.158;2023-04-01T03:11:04;11.00;99.90
20759;DHT22;10539;53.686;9.158;2023-04-01T03:13:31;11.00;99.90
20759;DHT22;10539;53.686;9.158;2023-04-01T03:15:57;10.90;99.90
20759;DHT22;10539;53.686;9.158;2023-04-01T03:18:22;11.00;99.90
20759;DHT22;10539;53.686;9.158;2023-04-01T03:20:48;11.00;99.90
20759;DHT22;10539;53.686;9.158;2023-04-01T03:23:16;11.00;99.90
20759;DHT22;10539;53.686;9.158;2023-04-01T03:25:47;10.90;99.90
20759;DHT22;10539;53.686;9.158;2023-04-01T03:28:13;11.00;99.90
20759;DHT22;10539;53.686;9.158;2023-04-01T03:30:39;11.00;99.90
20759;DHT22;10539;53.686;9.158;2023-04-01T03:33:05;11.00;99.90
20759;DHT22;10539;53.686;9.158;2023-04-01T03:35:32;10.90;99.90
20759;DHT22;10539;53.686;9.158;2023-04-01T03:37:57;10.90;99.90
20759;DHT22;10539;53.686;9.158;2023-04-01T03:40:23;10.90;99.90
20759;DHT22;10539;53.686;9.158;2023-04-01T03:42:49;10.90;99.90
20759;DHT22;10539;53.686;9.158;2023-04-01T03:45:15;10.90;99.90
20759;DHT22;10539;53.686;9.158;2023-04-01T03:47:41;10.90;99.90
20759;DHT22;10539;53.686;9.158;2023-04-01T03:50:07;10.90;99.90
20759;DHT22;10539;53.686;9.158;2023-04-01T03:52:34;10.90;99.90
20759;DHT22;10539;53.686;9.158;2023-04-01T03:55:00;10.90;99.90
20759;DHT22;10539;53.686;9.158;2023-04-01T03:57:27;10.90;99.90
20759;DHT22;10539;53.686;9.158;2023-04-01T03:59:53;10.90;99.90
20759;DHT22;10539;53.686;9.158;2023-04-01T04:02:19;10.90;99.90
20759;DHT22;10539;53.686;9.158;2023-04-01T04:04:45;10.90;99.90
20759;DHT22;10539;53.686;9.158;2023-04-01T04:07:12;10.90;99.90
20759;DHT22;10539;53.686;9.158;2023-04-01T04:09:38;10.90;99.90
20759;DHT22;10539;53.686;9.158;2023-04-01T04:12:04;10.90;99.90
20759;DHT22;10539;53.686;9.158;2023-04-01T04:14:31;10.90;99.90
20759;DHT22;10539;53.686;9.158;2023-04-01T04:16:57;10.90;99.90
20759;DHT22;10539;53.686;9.158;2023-04-01T04:19:23;10.90;99.90
20759;DHT22;10539;53.686;9.158;2023-04-01T04:21:49;10.90;99.90
20759;DHT22;10539;53.686;9.158;2023-04-01T04:24:15;11.00;99.90
20759;DHT22;10539;53.686;9.158;2023-04-01T04:26:41;11.00;99.90
20759;DHT22;10539;53.686;9.158;2023-04-01T04:29:06;11.00;99.90
20759;DHT22;10539;53.686;9.158;2023-04-01T04:31:32;11.00;99.90
20759;DHT22;10539;53.686;9.158;2023-04-01T04:34:00;10.90;99.90
20759;DHT22;10539;53.686;9.158;2023-04-01T04:36:28;10.90;99.90
20759;DHT22;10539;53.686;9.158;2023-04-01T04:38:54;10.90;99.90
20759;DHT22;10539;53.686;9.158;2023-04-01T04:41:20;10.90;99.90
20759;DHT22;10539;53.686;9.158;2023-04-01T04:43:55;10.90;99.90
20759;DHT22;10539;53.686;9.158;2023-04-01T04:46:22;10.90;99.90
20759;DHT22;10539;53.686;9.158;2023-04-01T04:48:48;10.90;99.90
20759;DHT22;10539;53.686;9.158;2023-04-01T04:51:18;10.90;99.90
20759;DHT22;10539;53.686;9.158;2023-04-01T04:53:44;11.00;99.90
20759;DHT22;10539;53.686;9.158;2023-04-01T04:56:11;11.00;99.90
20759;DHT22;10539;53.686;9.158;2023-04-01T04:58:38;10.90;99.90
20759;DHT22;10539;53.686;9.158;2023-04-01T05:01:12;10.70;99.90
20759;DHT22;10539;53.686;9.158;2023-04-01T05:03:38;10.40;99.90
20759;DHT22;10539;53.686;9.158;2023-04-01T05:06:06;10.10;99.90
20759;DHT22;10539;53.686;9.158;2023-04-01T05:08:32;9.90;99.90
20759;DHT22;10539;53.686;9.158;2023-04-01T05:10:58;9.60;99.90
20759;DHT22;10539;53.686;9.158;2023-04-01T05:13:24;9.50;99.90
20759;DHT22;10539;53.686;9.158;2023-04-01T05:15:50;9.20;99.90
20759;DHT22;10539;53.686;9.158;2023-04-01T05:18:16;9.10;99.90
20759;DHT22;10539;53.686;9.158;2023-04-01T05:20:50;9.10;99.90
20759;DHT22;10539;53.686;9.158;2023-04-01T05:23:16;8.90;99.90
20759;DHT22;10539;53.686;9.158;2023-04-01T05:25:43;8.80;99.90
20759;DHT22;10539;53.686;9.158;2023-04-01T05:28:10;8.70;99.90
20759;DHT22;10539;53.686;9.158;2023-04-01T05:30:38;8.60;99.90
20759;DHT22;10539;53.686;9.158;2023-04-01T05:33:04;8.50;99.90
20759;DHT22;10539;53.686;9.158;2023-04-01T05:35:30;8.50;99.90
20759;DHT22;10539;53.686;9.158;2023-04-01T05:37:56;8.50;99.90
20759;DHT22;10539;53.686;9.158;2023-04-01T05:40:22;8.40;99.90
20759;DHT22;10539;53.686;9.158;2023-04-01T05:42:47;8.40;99.90
20759;DHT22;10539;53.686;9.158;2023-04-01T05:45:13;8.40;99.90
20759;DHT22;10539;53.686;9.158;2023-04-01T05:47:41;8.30;99.90
20759;DHT22;10539;53.686;9.158;2023-04-01T05:50:08;8.30;99.90
20759;DHT22;10539;53.686;9.158;2023-04-01T05:52:34;8.20;99.90
20759;DHT22;10539;53.686;9.158;2023-04-01T05:55:00;8.10;99.90
20759;DHT22;10539;53.686;9.158;2023-04-01T05:57:26;8.10;99.90
20759;DHT22;10539;53.686;9.158;2023-04-01T05:59:52;8.00;99.90
20759;DHT22;10539;53.686;9.158;2023-04-01T06:02:18;8.00;99.90
20759;DHT22;10539;53.686;9.158;2023-04-01T06:04:44;8.00;99.90
20759;DHT22;10539;53.686;9.158;2023-04-01T06:07:17;7.90;99.90
20759;DHT22;10539;53.686;9.158;2023-04-01T06:09:45;7.90;99.90
20759;DHT22;10539;53.686;9.158;2023-04-01T06:12:24;7.80;99.90
20759;DHT22;10539;53.686;9.158;2023-04-01T06:15:02;7.80;99.90
20759;DHT22;10539;53.686;9.158;2023-04-01T06:17:56;7.70;99.90
20759;DHT22;10539;53.686;9.158;2023-04-01T06:29:38;7.60;99.90
20759;DHT22;10539;53.686;9.158;2023-04-01T06:32:54;7.60;99.90
20759;DHT22;10539;53.686;9.158;2023-04-01T06:38:00;7.60;99.90
20759;DHT22;10539;53.686;9.158;2023-04-01T06:40:50;7.60;99.90
20759;DHT22;10539;53.686;9.158;2023-04-01T06:46:16;7.60;99.90
20759;DHT22;10539;53.686;9.158;2023-04-01T06:54:55;7.50;99.90
20759;DHT22;10539;53.686;9.158;2023-04-01T06:57:33;7.50;99.90
20759;DHT22;10539;53.686;9.158;2023-04-01T07:00:03;7.50;99.90
20759;DHT22;10539;53.686;9.158;2023-04-01T07:04:58;7.50;99.90
20759;DHT22;10539;53.686;9.158;2023-04-01T07:07:43;7.50;99.90
20759;DHT22;10539;53.686;9.158;2023-04-01T07:12:59;7.40;99.90
20759;DHT22;10539;53.686;9.158;2023-04-01T07:15:39;7.40;99.90
20759;DHT22;10539;53.686;9.158;2023-04-01T07:18:16;7.40;99.90
20759;DHT22;10539;53.686;9.158;2023-04-01T07:20:43;7.30;99.90
20759;DHT22;10539;53.686;9.158;2023-04-01T07:23:23;7.40;99.90
20759;DHT22;10539;53.686;9.158;2023-04-01T07:25:56;7.30;99.90
20759;DHT22;10539;53.686;9.158;2023-04-01T07:28:24;7.30;99.90
20759;DHT22;10539;53.686;9.158;2023-04-01T07:33:45;7.30;99.90
20759;DHT22;10539;53.686;9.158;2023-04-01T07:36:42;7.30;99.90
20759;DHT22;10539;53.686;9.158;2023-04-01T07:42:24;7.40;99.90
20759;DHT22;10539;53.686;9.158;2023-04-01T07:50:25;7.40;99.90
20759;DHT22;10539;53.686;9.158;2023-04-01T07:55:50;7.30;99.90
20759;DHT22;10539;53.686;9.158;2023-04-01T07:58:41;7.30;99.90
20759;DHT22;10539;53.686;9.158;2023-04-01T08:01:49;7.30;99.90
20759;DHT22;10539;53.686;9.158;2023-04-01T08:07:20;7.40;99.90
20759;DHT22;10539;53.686;9.158;2023-04-01T08:15:23;7.30;99.90
20759;DHT22;10539;53.686;9.158;2023-04-01T08:20:59;7.10;99.90
20759;DHT22;10539;53.686;9.158;2023-04-01T08:23:32;7.10;99.90
20759;DHT22;10539;53.686;9.158;2023-04-01T08:26:06;7.10;99.90
20759;DHT22;10539;53.686;9.158;2023-04-01T08:28:44;7.10;99.90
20759;DHT22;10539;53.686;9.158;2023-04-01T08:31:35;7.10;99.90
20759;DHT22;10539;53.686;9.158;2023-04-01T08:34:08;7.10;99.90
20759;DHT22;10539;53.686;9.158;2023-04-01T08:36:42;7.10;99.90
20759;DHT22;10539;53.686;9.158;2023-04-01T08:39:15;7.00;99.90
20759;DHT22;10539;53.686;9.158;2023-04-01T08:56:47;7.00;99.90
20759;DHT22;10539;53.686;9.158;2023-04-01T09:10:36;6.90;99.90
20759;DHT22;10539;53.686;9.158;2023-04-01T09:14:22;6.90;99.90
20759;DHT22;10539;53.686;9.158;2023-04-01T09:21:56;6.90;99.90
20759;DHT22;10539;53.686;9.158;2023-04-01T09:32:59;7.00;99.90
20759;DHT22;10539;53.686;9.158;2023-04-01T09:35:48;7.00;99.90
20759;DHT22;10539;53.686;9.158;2023-04-01T09:38:30;7.00;99.90
20759;DHT22;10539;53.686;9.158;2023-04-01T09:44:18;7.00;99.90
20759;DHT22;10539;53.686;9.158;2023-04-01T09:47:09;7.00;99.90
20759;DHT22;10539;53.686;9.158;2023-04-01T10:01:20;7.10;99.90
20759;DHT22;10539;53.686;9.158;2023-04-01T10:12:52;7.30;99.90
20759;DHT22;10539;53.686;9.158;2023-04-01T10:29:25;7.20;99.90
20759;DHT22;10539;53.686;9.158;2023-04-01T10:35:03;7.30;99.90
20759;DHT22;10539;53.686;9.158;2023-04-01T10:44:12;7.40;99.90
20759;DHT22;10539;53.686;9.158;2023-04-01T10:50:01;7.30;99.90
20759;DHT22;10539;53.686;9.158;2023-04-01T10:52:56;7.30;99.90
20759;DHT22;10539;53.686;9.158;2023-04-01T11:04:16;7.30;99.90
20759;DHT22;10539;53.686;9.158;2023-04-01T11:18:39;7.30;99.90
20759;DHT22;10539;53.686;9.158;2023-04-01T11:49:21;7.00;99.90
20759;DHT22;10539;53.686;9.158;2023-04-01T11:57:18;7.10;99.90
20759;DHT22;10539;53.686;9.158;2023-04-01T12:08:01;7.10;99.90
20759;DHT22;10539;53.686;9.158;2023-04-01T12:10:43;7.30;99.90
20759;DHT22;10539;53.686;9.158;2023-04-01T12:18:58;7.10;99.90
20759;DHT22;10539;53.686;9.158;2023-04-01T12:22:03;7.10;99.90
20759;DHT22;10539;53.686;9.158;2023-04-01T12:37:36;6.90;99.90
20759;DHT22;10539;53.686;9.158;2023-04-01T12:49:01;6.80;99.90
20759;DHT22;10539;53.686;9.158;2023-04-01T12:57:22;6.90;99.90
20759;DHT22;10539;53.686;9.158;2023-04-01T13:02:51;6.80;99.90
20759;DHT22;10539;53.686;9.158;2023-04-01T13:08:38;6.80;99.90
20759;DHT22;10539;53.686;9.158;2023-04-01T13:11:18;6.70;99.90
20759;DHT22;10539;53.686;9.158;2023-04-01T13:13:49;6.70;99.90
20759;DHT22;10539;53.686;9.158;2023-04-01T13:16:22;6.70;99.90
20759;DHT22;10539;53.686;9.158;2023-04-01T13:19:03;6.60;99.90
20759;DHT22;10539;53.686;9.158;2023-04-01T13:21:47;6.70;99.90
20759;DHT22;10539;53.686;9.158;2023-04-01T13:24:43;6.60;99.90
20759;DHT22;10539;53.686;9.158;2023-04-01T13:27:50;6.60;99.90
20759;DHT22;10539;53.686;9.158;2023-04-01T13:33:00;6.60;99.90
20759;DHT22;10539;53.686;9.158;2023-04-01T13:35:57;6.70;99.90
20759;DHT22;10539;53.686;9.158;2023-04-01T13:41:42;6.80;99.90
20759;DHT22;10539;53.686;9.158;2023-04-01T13:44:31;6.80;99.90
20759;DHT22;10539;53.686;9.158;2023-04-01T13:50:34;6.80;99.90
20759;DHT22;10539;53.686;9.158;2023-04-01T13:53:16;6.80;99.90
20759;DHT22;10539;53.686;9.158;2023-04-01T13:55:58;6.80;99.90
20759;DHT22;10539;53.686;9.158;2023-04-01T14:01:18;6.80;99.90
20759;DHT22;10539;53.686;9.158;2023-04-01T14:03:57;6.70;99.90
20759;DHT22;10539;53.686;9.158;2023-04-01T14:18:20;6.60;99.90
20759;DHT22;10539;53.686;9.158;2023-04-01T14:21:17;6.60;99.90
20759;DHT22;10539;53.686;9.158;2023-04-01T14:23:50;6.70;99.90
20759;DHT22;10539;53.686;9.158;2023-04-01T14:26:35;6.60;99.90
20759;DHT22;10539;53.686;9.158;2023-04-01T14:34:52;6.60;99.90
20759;DHT22;10539;53.686;9.158;2023-04-01T14:37:40;6.70;99.90
20759;DHT22;10539;53.686;9.158;2023-04-01T14:48:56;6.70;99.90
20759;DHT22;10539;53.686;9.158;2023-04-01T14:51:32;6.70;99.90
20759;DHT22;10539;53.686;9.158;2023-04-01T14:56:40;6.70;99.90
20759;DHT22;10539;53.686;9.158;2023-04-01T14:59:25;6.80;99.90
20759;DHT22;10539;53.686;9.158;2023-04-01T15:02:14;6.60;99.90
20759;DHT22;10539;53.686;9.158;2023-04-01T15:08:10;6.60;99.90
20759;DHT22;10539;53.686;9.158;2023-04-01T15:10:57;6.60;99.90
20759;DHT22;10539;53.686;9.158;2023-04-01T15:13:33;6.60;99.90
20759;DHT22;10539;53.686;9.158;2023-04-01T15:16:44;6.60;99.90
20759;DHT22;10539;53.686;9.158;2023-04-01T15:27:38;6.50;99.90
20759;DHT22;10539;53.686;9.158;2023-04-01T15:30:27;6.40;99.90
20759;DHT22;10539;53.686;9.158;2023-04-01T15:35:56;6.50;99.90
20759;DHT22;10539;53.686;9.158;2023-04-01T15:41:44;6.40;99.90
20759;DHT22;10539;53.686;9.158;2023-04-01T15:47:36;6.30;99.90
20759;DHT22;10539;53.686;9.158;2023-04-01T15:55:48;6.30;99.90
20759;DHT22;10539;53.686;9.158;2023-04-01T16:01:14;6.20;99.90
20759;DHT22;10539;53.686;9.158;2023-04-01T16:04:07;6.20;99.90
20759;DHT22;10539;53.686;9.158;2023-04-01T16:06:46;6.20;99.90
20759;DHT22;10539;53.686;9.158;2023-04-01T16:09:36;6.20;99.90
20759;DHT22;10539;53.686;9.158;2023-04-01T16:12:16;6.20;99.90
20759;DHT22;10539;53.686;9.158;2023-04-01T16:14:58;6.20;99.90
20759;DHT22;10539;53.686;9.158;2023-04-01T16:20:25;6.20;99.90
20759;DHT22;10539;53.686;9.158;2023-04-01T16:23:13;6.10;99.90
20759;DHT22;10539;53.686;9.158;2023-04-01T16:25:51;6.00;99.90
20759;DHT22;10539;53.686;9.158;2023-04-01T16:28:49;6.00;99.90
20759;DHT22;10539;53.686;9.158;2023-04-01T16:31:46;6.00;99.90
20759;DHT22;10539;53.686;9.158;2023-04-01T16:36:50;6.00;99.90
20759;DHT22;10539;53.686;9.158;2023-04-01T16:40:09;6.00;99.90
20759;DHT22;10539;53.686;9.158;2023-04-01T16:47:40;5.90;99.90
20759;DHT22;10539;53.686;9.158;2023-04-01T16:50:44;5.90;99.90
20759;DHT22;10539;53.686;9.158;2023-04-01T16:58:08;5.80;99.90
20759;DHT22;10539;53.686;9.158;2023-04-01T17:00:47;5.80;99.90
20759;DHT22;10539;53.686;9.158;2023-04-01T17:03:21;5.80;99.90
20759;DHT22;10539;53.686;9.158;2023-04-01T17:11:44;5.80;99.90
20759;DHT22;10539;53.686;9.158;2023-04-01T17:22:42;5.80;99.90
20759;DHT22;10539;53.686;9.158;2023-04-01T17:27:59;5.70;99.90
20759;DHT22;10539;53.686;9.158;2023-04-01T17:30:39;5.70;99.90
20759;DHT22;10539;53.686;9.158;2023-04-01T17:33:24;5.70;99.90
20759;DHT22;10539;53.686;9.158;2023-04-01T17:35:59;5.70;99.90
20759;DHT22;10539;53.686;9.158;2023-04-01T17:38:42;5.60;99.90
20759;DHT22;10539;53.686;9.158;2023-04-01T17:41:35;5.70;99.90
20759;DHT22;10539;53.686;9.158;2023-04-01T17:53:14;5.70;99.90
20759;DHT22;10539;53.686;9.158;2023-04-01T17:58:35;5.60;99.90
20759;DHT22;10539;53.686;9.158;2023-04-01T18:15:49;5.40;99.90
20759;DHT22;10539;53.686;9.158;2023-04-01T18:18:39;5.40;99.90
20759;DHT22;10539;53.686;9.158;2023-04-01T18:26:50;5.50;99.90
20759;DHT22;10539;53.686;9.158;2023-04-01T18:29:36;5.50;99.90
20759;DHT22;10539;53.686;9.158;2023-04-01T18:32:14;5.50;99.90
20759;DHT22;10539;53.686;9.158;2023-04-01T18:37:29;5.40;99.90
20759;DHT22;10539;53.686;9.158;2023-04-01T18:42:41;5.40;99.90
20759;DHT22;10539;53.686;9.158;2023-04-01T18:48:33;5.30;99.90
20759;DHT22;10539;53.686;9.158;2023-04-01T18:54:00;5.20;99.90
20759;DHT22;10539;53.686;9.158;2023-04-01T18:56:32;5.20;99.90
20759;DHT22;10539;53.686;9.158;2023-04-01T18:59:04;5.20;99.90
20759;DHT22;10539;53.686;9.158;2023-04-01T19:01:41;5.20;99.90
20759;DHT22;10539;53.686;9.158;2023-04-01T19:04:36;5.20;99.90
20759;DHT22;10539;53.686;9.158;2023-04-01T19:07:40;5.20;99.90
20759;DHT22;10539;53.686;9.158;2023-04-01T19:15:49;5.10;99.90
20759;DHT22;10539;53.686;9.158;2023-04-01T19:18:49;5.10;99.90
20759;DHT22;10539;53.686;9.158;2023-04-01T19:21:25;5.10;99.90
20759;DHT22;10539;53.686;9.158;2023-04-01T19:24:21;5.10;99.90
20759;DHT22;10539;53.686;9.158;2023-04-01T19:27:26;5.10;99.90
20759;DHT22;10539;53.686;9.158;2023-04-01T19:36:35;5.10;99.90
20759;DHT22;10539;53.686;9.158;2023-04-01T19:41:21;5.00;99.90
20759;DHT22;10539;53.686;9.158;2023-04-01T19:43:59;5.00;99.90
20759;DHT22;10539;53.686;9.158;2023-04-01T19:46:33;5.00;99.90
20759;DHT22;10539;53.686;9.158;2023-04-01T19:49:14;4.90;99.90
20759;DHT22;10539;53.686;9.158;2023-04-01T19:59:19;4.70;99.90
20759;DHT22;10539;53.686;9.158;2023-04-01T20:02:01;4.60;99.90
20759;DHT22;10539;53.686;9.158;2023-04-01T20:04:51;4.50;99.90
20759;DHT22;10539;53.686;9.158;2023-04-01T20:10:16;4.50;99.90
20759;DHT22;10539;53.686;9.158;2023-04-01T20:13:00;4.50;99.90
20759;DHT22;10539;53.686;9.158;2023-04-01T20:16:04;4.50;99.90
20759;DHT22;10539;53.686;9.158;2023-04-01T20:23:52;4.30;99.90
20759;DHT22;10539;53.686;9.158;2023-04-01T20:26:28;4.30;99.90
20759;DHT22;10539;53.686;9.158;2023-04-01T20:31:41;4.20;99.90
20759;DHT22;10539;53.686;9.158;2023-04-01T20:37:16;4.20;99.90
20759;DHT22;10539;53.686;9.158;2023-04-01T20:42:39;4.10;99.90
20759;DHT22;10539;53.686;9.158;2023-04-01T20:53:33;4.00;99.90
20759;DHT22;10539;53.686;9.158;2023-04-01T20:56:07;4.00;99.90
20759;DHT22;10539;53.686;9.158;2023-04-01T21:01:31;3.90;99.90
20759;DHT22;10539;53.686;9.158;2023-04-01T21:07:07;3.80;99.90
20759;DHT22;10539;53.686;9.158;2023-04-01T21:09:57;3.90;99.90
20759;DHT22;10539;53.686;9.158;2023-04-01T21:12:50;3.90;99.90
20759;DHT22;10539;53.686;9.158;2023-04-01T21:15:37;3.80;99.90
20759;DHT22;10539;53.686;9.158;2023-04-01T21:21:33;3.80;99.90
20759;DHT22;10539;53.686;9.158;2023-04-01T21:40:02;3.60;99.90
20759;DHT22;10539;53.686;9.158;2023-04-01T21:42:49;3.50;99.90
20759;DHT22;10539;53.686;9.158;2023-04-01T21:56:26;3.40;99.90
20759;DHT22;10539;53.686;9.158;2023-04-01T21:59:34;3.40;99.90
20759;DHT22;10539;53.686;9.158;2023-04-01T22:05:07;3.40;99.90
20759;DHT22;10539;53.686;9.158;2023-04-01T22:07:41;3.30;99.90
20759;DHT22;10539;53.686;9.158;2023-04-01T22:13:03;3.30;99.90
20759;DHT22;10539;53.686;9.158;2023-04-01T22:15:54;3.30;99.90
20759;DHT22;10539;53.686;9.158;2023-04-01T22:24:14;3.30;99.90
20759;DHT22;10539;53.686;9.158;2023-04-01T22:32:38;3.20;99.90
20759;DHT22;10539;53.686;9.158;2023-04-01T22:40:46;3.20;99.90
20759;DHT22;10539;53.686;9.158;2023-04-01T22:43:28;3.10;99.90
20759;DHT22;10539;53.686;9.158;2023-04-01T22:56:27;3.10;99.90
20759;DHT22;10539;53.686;9.158;2023-04-01T22:59:10;3.00;99.90
20759;DHT22;10539;53.686;9.158;2023-04-01T23:01:56;3.10;99.90
20759;DHT22;10539;53.686;9.158;2023-04-01T23:04:24;3.00;99.90
20759;DHT22;10539;53.686;9.158;2023-04-01T23:06:58;3.00;99.90
20759;DHT22;10539;53.686;9.158;2023-04-01T23:09:31;3.00;99.90
20759;DHT22;10539;53.686;9.158;2023-04-01T23:12:03;3.00;99.90
20759;DHT22;10539;53.686;9.158;2023-04-01T23:14:37;2.90;99.90
20759;DHT22;10539;53.686;9.158;2023-04-01T23:20:09;3.00;99.90
20759;DHT22;10539;53.686;9.158;2023-04-01T23:25:30;2.90;99.90
20759;DHT22;10539;53.686;9.158;2023-04-01T23:30:46;2.90;99.90
20759;DHT22;10539;53.686;9.158;2023-04-01T23:33:22;2.80;99.90
20759;DHT22;10539;53.686;9.158;2023-04-01T23:38:36;2.80;99.90
20759;DHT22;10539;53.686;9.158;2023-04-01T23:41:03;2.80;99.90
20759;DHT22;10539;53.686;9.158;2023-04-01T23:46:24;2.80;99.90
20759;DHT22;10539;53.686;9.158;2023-04-01T23:48:51;2.70;99.90
20759;DHT22;10539;53.686;9.158;2023-04-01T23:51:28;2.70;99.90
20759;DHT22;10539;53.686;9.158;2023-04-01T23:54:17;2.70;99.90
20759;DHT22;10539;53.686;9.158;2023-04-01T23:56:48;2.70;99.90
20759;DHT22;10539;53.686;9.158;2023-04-01T23:59:19;2.70;99.90
